sensor_id;sensor_type;location;lat;lon;timestamp;P1;durP1;ratioP1;P2;durP2;ratioP2
2610;SDS011;5612;51.134;17.058;2023-07-16T00:01:02;5.63;;;5.33;;
2610;SDS011;5612;51.134;17.058;2023-07-16T00:03:30;6.53;;;6.13;;
2610;SDS011;5612;51.134;17.058;2023-07-16T00:05:59;6.80;;;6.10;;
2610;SDS011;5612;51.134;17.058;2023-07-16T00:08:28;6.40;;;5.77;;
2610;SDS011;5612;51.134;17.058;2023-07-16T00:10:58;6.40;;;5.80;;
2610;SDS011;5612;51.134;17.058;2023-07-16T00:13:27;5.93;;;5.50;;
2610;SDS011;5612;51.134;17.058;2023-07-16T00:15:56;5.93;;;5.53;;
2610;SDS011;5612;51.134;17.058;2023-07-16T00:18:25;6.80;;;6.20;;
2610;SDS011;5612;51.134;17.058;2023-07-16T00:20:53;6.10;;;5.70;;
2610;SDS011;5612;51.134;17.058;2023-07-16T00:23:22;7.07;;;5.80;;
2610;SDS011;5612;51.134;17.058;2023-07-16T00:25:51;5.50;;;5.10;;
2610;SDS011;5612;51.134;17.058;2023-07-16T00:28:22;6.67;;;5.40;;
2610;SDS011;5612;51.134;17.058;2023-07-16T00:30:50;8.10;;;5.10;;
2610;SDS011;5612;51.134;17.058;2023-07-16T00:33:19;6.13;;;5.53;;
2610;SDS011;5612;51.134;17.058;2023-07-16T00:35:48;5.60;;;5.10;;
2610;SDS011;5612;51.134;17.058;2023-07-16T00:38:18;5.83;;;5.43;;
2610;SDS011;5612;51.134;17.058;2023-07-16T00:40:47;5.67;;;5.37;;
2610;SDS011;5612;51.134;17.058;2023-07-16T00:43:16;7.77;;;5.37;;
2610;SDS011;5612;51.134;17.058;2023-07-16T00:45:46;5.83;;;5.43;;
2610;SDS011;5612;51.134;17.058;2023-07-16T00:48:15;6.43;;;5.10;;
2610;SDS011;5612;51.134;17.058;2023-07-16T00:50:44;5.70;;;5.27;;
2610;SDS011;5612;51.134;17.058;2023-07-16T00:53:13;6.50;;;6.07;;
2610;SDS011;5612;51.134;17.058;2023-07-16T00:55:42;5.77;;;5.37;;
2610;SDS011;5612;51.134;17.058;2023-07-16T00:58:11;6.43;;;5.87;;
2610;SDS011;5612;51.134;17.058;2023-07-16T01:00:40;5.70;;;5.20;;
2610;SDS011;5612;51.134;17.058;2023-07-16T01:03:11;6.27;;;5.87;;
2610;SDS011;5612;51.134;17.058;2023-07-16T01:05:44;9.37;;;6.13;;
2610;SDS011;5612;51.134;17.058;2023-07-16T01:08:18;7.00;;;6.03;;
2610;SDS011;5612;51.134;17.058;2023-07-16T01:10:53;5.93;;;5.43;;
2610;SDS011;5612;51.134;17.058;2023-07-16T01:13:22;5.60;;;5.23;;
2610;SDS011;5612;51.134;17.058;2023-07-16T01:15:52;6.27;;;5.87;;
2610;SDS011;5612;51.134;17.058;2023-07-16T01:18:23;6.17;;;5.47;;
2610;SDS011;5612;51.134;17.058;2023-07-16T01:20:52;5.83;;;5.43;;
2610;SDS011;5612;51.134;17.058;2023-07-16T01:23:38;6.03;;;5.33;;
2610;SDS011;5612;51.134;17.058;2023-07-16T01:29:25;5.80;;;5.40;;
2610;SDS011;5612;51.134;17.058;2023-07-16T01:31:56;6.40;;;5.90;;
2610;SDS011;5612;51.134;17.058;2023-07-16T01:34:28;5.60;;;5.20;;
2610;SDS011;5612;51.134;17.058;2023-07-16T01:37:00;10.13;;;5.87;;
2610;SDS011;5612;51.134;17.058;2023-07-16T01:39:30;5.70;;;5.30;;
2610;SDS011;5612;51.134;17.058;2023-07-16T01:42:00;6.60;;;6.00;;
2610;SDS011;5612;51.134;17.058;2023-07-16T01:44:30;6.07;;;5.70;;
2610;SDS011;5612;51.134;17.058;2023-07-16T01:47:04;5.77;;;5.37;;
2610;SDS011;5612;51.134;17.058;2023-07-16T01:49:35;6.40;;;5.90;;
2610;SDS011;5612;51.134;17.058;2023-07-16T01:52:04;6.20;;;5.80;;
2610;SDS011;5612;51.134;17.058;2023-07-16T01:54:34;5.90;;;5.40;;
2610;SDS011;5612;51.134;17.058;2023-07-16T01:57:03;6.23;;;5.83;;
2610;SDS011;5612;51.134;17.058;2023-07-16T01:59:34;5.83;;;5.33;;
2610;SDS011;5612;51.134;17.058;2023-07-16T02:02:03;6.00;;;5.53;;
2610;SDS011;5612;51.134;17.058;2023-07-16T02:04:33;6.37;;;5.87;;
2610;SDS011;5612;51.134;17.058;2023-07-16T02:07:02;5.90;;;5.50;;
2610;SDS011;5612;51.134;17.058;2023-07-16T02:09:31;6.43;;;5.83;;
2610;SDS011;5612;51.134;17.058;2023-07-16T02:12:01;5.57;;;5.07;;
2610;SDS011;5612;51.134;17.058;2023-07-16T02:14:30;6.77;;;6.10;;
2610;SDS011;5612;51.134;17.058;2023-07-16T02:17:00;6.13;;;5.73;;
2610;SDS011;5612;51.134;17.058;2023-07-16T02:19:29;5.70;;;5.20;;
2610;SDS011;5612;51.134;17.058;2023-07-16T02:21:57;5.93;;;5.53;;
2610;SDS011;5612;51.134;17.058;2023-07-16T02:24:26;6.53;;;6.03;;
2610;SDS011;5612;51.134;17.058;2023-07-16T02:26:55;7.20;;;6.07;;
2610;SDS011;5612;51.134;17.058;2023-07-16T02:29:24;6.33;;;5.90;;
2610;SDS011;5612;51.134;17.058;2023-07-16T02:31:53;7.13;;;6.63;;
2610;SDS011;5612;51.134;17.058;2023-07-16T02:34:24;6.00;;;5.57;;
2610;SDS011;5612;51.134;17.058;2023-07-16T02:36:52;7.33;;;6.70;;
2610;SDS011;5612;51.134;17.058;2023-07-16T02:39:21;6.37;;;5.87;;
2610;SDS011;5612;51.134;17.058;2023-07-16T02:41:50;5.60;;;5.30;;
2610;SDS011;5612;51.134;17.058;2023-07-16T02:44:19;6.80;;;6.27;;
2610;SDS011;5612;51.134;17.058;2023-07-16T02:46:48;6.40;;;5.80;;
2610;SDS011;5612;51.134;17.058;2023-07-16T02:49:16;6.57;;;6.07;;
2610;SDS011;5612;51.134;17.058;2023-07-16T02:51:47;6.20;;;5.77;;
2610;SDS011;5612;51.134;17.058;2023-07-16T02:54:15;7.17;;;6.47;;
2610;SDS011;5612;51.134;17.058;2023-07-16T02:56:44;6.50;;;6.00;;
2610;SDS011;5612;51.134;17.058;2023-07-16T02:59:13;6.87;;;6.30;;
2610;SDS011;5612;51.134;17.058;2023-07-16T03:01:42;6.63;;;6.03;;
2610;SDS011;5612;51.134;17.058;2023-07-16T03:04:11;6.33;;;5.73;;
2610;SDS011;5612;51.134;17.058;2023-07-16T03:06:47;6.43;;;5.93;;
2610;SDS011;5612;51.134;17.058;2023-07-16T03:09:16;8.60;;;7.90;;
2610;SDS011;5612;51.134;17.058;2023-07-16T03:11:44;6.73;;;6.27;;
2610;SDS011;5612;51.134;17.058;2023-07-16T03:14:13;6.80;;;6.17;;
2610;SDS011;5612;51.134;17.058;2023-07-16T03:16:42;6.83;;;6.33;;
2610;SDS011;5612;51.134;17.058;2023-07-16T03:19:11;6.03;;;5.60;;
2610;SDS011;5612;51.134;17.058;2023-07-16T03:21:40;7.20;;;6.50;;
2610;SDS011;5612;51.134;17.058;2023-07-16T03:24:10;6.17;;;5.67;;
2610;SDS011;5612;51.134;17.058;2023-07-16T03:26:39;7.00;;;6.40;;
2610;SDS011;5612;51.134;17.058;2023-07-16T03:29:07;6.97;;;6.40;;
2610;SDS011;5612;51.134;17.058;2023-07-16T03:31:36;7.40;;;6.70;;
2610;SDS011;5612;51.134;17.058;2023-07-16T03:34:05;8.23;;;7.43;;
2610;SDS011;5612;51.134;17.058;2023-07-16T03:36:34;8.73;;;7.00;;
2610;SDS011;5612;51.134;17.058;2023-07-16T03:39:03;7.60;;;7.00;;
2610;SDS011;5612;51.134;17.058;2023-07-16T03:41:33;7.47;;;6.70;;
2610;SDS011;5612;51.134;17.058;2023-07-16T03:44:02;6.40;;;5.87;;
2610;SDS011;5612;51.134;17.058;2023-07-16T03:46:31;7.00;;;6.40;;
2610;SDS011;5612;51.134;17.058;2023-07-16T03:49:00;6.33;;;5.83;;
2610;SDS011;5612;51.134;17.058;2023-07-16T03:51:29;5.63;;;5.20;;
2610;SDS011;5612;51.134;17.058;2023-07-16T03:53:58;6.40;;;5.97;;
2610;SDS011;5612;51.134;17.058;2023-07-16T03:56:26;6.30;;;5.80;;
2610;SDS011;5612;51.134;17.058;2023-07-16T03:58:56;6.20;;;5.80;;
2610;SDS011;5612;51.134;17.058;2023-07-16T04:01:25;5.63;;;5.23;;
2610;SDS011;5612;51.134;17.058;2023-07-16T04:03:54;9.80;;;5.90;;
2610;SDS011;5612;51.134;17.058;2023-07-16T04:06:23;8.27;;;6.13;;
2610;SDS011;5612;51.134;17.058;2023-07-16T04:08:52;6.13;;;5.73;;
2610;SDS011;5612;51.134;17.058;2023-07-16T04:11:20;6.07;;;5.73;;
2610;SDS011;5612;51.134;17.058;2023-07-16T04:13:49;6.30;;;5.70;;
2610;SDS011;5612;51.134;17.058;2023-07-16T04:16:19;5.83;;;5.33;;
2610;SDS011;5612;51.134;17.058;2023-07-16T04:18:48;5.93;;;5.53;;
2610;SDS011;5612;51.134;17.058;2023-07-16T04:21:17;7.00;;;5.70;;
2610;SDS011;5612;51.134;17.058;2023-07-16T04:23:46;5.63;;;5.27;;
2610;SDS011;5612;51.134;17.058;2023-07-16T04:26:14;16.07;;;5.60;;
2610;SDS011;5612;51.134;17.058;2023-07-16T04:28:44;5.10;;;4.70;;
2610;SDS011;5612;51.134;17.058;2023-07-16T04:31:13;5.70;;;5.20;;
2610;SDS011;5612;51.134;17.058;2023-07-16T04:33:43;9.63;;;4.83;;
2610;SDS011;5612;51.134;17.058;2023-07-16T04:36:12;5.10;;;4.77;;
2610;SDS011;5612;51.134;17.058;2023-07-16T04:38:41;4.90;;;4.50;;
2610;SDS011;5612;51.134;17.058;2023-07-16T04:41:10;6.00;;;5.60;;
2610;SDS011;5612;51.134;17.058;2023-07-16T04:43:39;5.63;;;5.10;;
2610;SDS011;5612;51.134;17.058;2023-07-16T04:46:08;6.17;;;5.67;;
2610;SDS011;5612;51.134;17.058;2023-07-16T04:48:38;5.93;;;5.43;;
2610;SDS011;5612;51.134;17.058;2023-07-16T04:51:09;5.00;;;4.80;;
2610;SDS011;5612;51.134;17.058;2023-07-16T04:53:38;5.37;;;5.07;;
2610;SDS011;5612;51.134;17.058;2023-07-16T04:56:10;6.10;;;5.60;;
2610;SDS011;5612;51.134;17.058;2023-07-16T04:58:41;6.00;;;5.40;;
2610;SDS011;5612;51.134;17.058;2023-07-16T05:01:10;5.33;;;4.93;;
2610;SDS011;5612;51.134;17.058;2023-07-16T05:03:39;5.83;;;5.33;;
2610;SDS011;5612;51.134;17.058;2023-07-16T05:06:09;5.23;;;4.83;;
2610;SDS011;5612;51.134;17.058;2023-07-16T05:08:38;5.63;;;5.23;;
2610;SDS011;5612;51.134;17.058;2023-07-16T05:11:07;6.07;;;5.30;;
2610;SDS011;5612;51.134;17.058;2023-07-16T05:13:36;5.77;;;5.37;;
2610;SDS011;5612;51.134;17.058;2023-07-16T05:16:05;6.07;;;3.70;;
2610;SDS011;5612;51.134;17.058;2023-07-16T05:18:34;5.83;;;5.23;;
2610;SDS011;5612;51.134;17.058;2023-07-16T05:21:03;5.40;;;4.90;;
2610;SDS011;5612;51.134;17.058;2023-07-16T05:23:33;4.60;;;4.20;;
2610;SDS011;5612;51.134;17.058;2023-07-16T05:26:02;5.30;;;4.77;;
2610;SDS011;5612;51.134;17.058;2023-07-16T05:28:31;6.97;;;4.53;;
2610;SDS011;5612;51.134;17.058;2023-07-16T05:30:59;6.20;;;5.20;;
2610;SDS011;5612;51.134;17.058;2023-07-16T05:33:29;6.30;;;5.10;;
2610;SDS011;5612;51.134;17.058;2023-07-16T05:35:58;5.47;;;4.90;;
2610;SDS011;5612;51.134;17.058;2023-07-16T05:38:27;5.20;;;4.70;;
2610;SDS011;5612;51.134;17.058;2023-07-16T05:41:01;5.43;;;4.93;;
2610;SDS011;5612;51.134;17.058;2023-07-16T05:43:30;5.17;;;4.67;;
2610;SDS011;5612;51.134;17.058;2023-07-16T05:45:59;6.00;;;4.10;;
2610;SDS011;5612;51.134;17.058;2023-07-16T05:48:28;8.07;;;4.70;;
2610;SDS011;5612;51.134;17.058;2023-07-16T05:50:57;6.37;;;4.23;;
2610;SDS011;5612;51.134;17.058;2023-07-16T05:53:26;4.40;;;4.03;;
2610;SDS011;5612;51.134;17.058;2023-07-16T05:55:54;6.50;;;4.50;;
2610;SDS011;5612;51.134;17.058;2023-07-16T05:58:25;4.70;;;4.30;;
2610;SDS011;5612;51.134;17.058;2023-07-16T06:00:54;3.93;;;3.60;;
2610;SDS011;5612;51.134;17.058;2023-07-16T06:03:23;4.30;;;3.57;;
2610;SDS011;5612;51.134;17.058;2023-07-16T06:05:51;4.07;;;3.67;;
2610;SDS011;5612;51.134;17.058;2023-07-16T06:08:20;3.53;;;3.10;;
2610;SDS011;5612;51.134;17.058;2023-07-16T06:10:51;4.07;;;3.77;;
2610;SDS011;5612;51.134;17.058;2023-07-16T06:13:20;5.07;;;3.97;;
2610;SDS011;5612;51.134;17.058;2023-07-16T06:15:50;3.47;;;3.17;;
2610;SDS011;5612;51.134;17.058;2023-07-16T06:18:18;3.90;;;3.20;;
2610;SDS011;5612;51.134;17.058;2023-07-16T06:20:47;3.73;;;3.53;;
2610;SDS011;5612;51.134;17.058;2023-07-16T06:23:18;4.23;;;3.93;;
2610;SDS011;5612;51.134;17.058;2023-07-16T06:25:47;4.93;;;4.43;;
2610;SDS011;5612;51.134;17.058;2023-07-16T06:28:16;3.63;;;3.33;;
2610;SDS011;5612;51.134;17.058;2023-07-16T06:30:45;3.30;;;3.03;;
2610;SDS011;5612;51.134;17.058;2023-07-16T06:33:15;3.53;;;3.23;;
2610;SDS011;5612;51.134;17.058;2023-07-16T06:35:44;3.77;;;3.30;;
2610;SDS011;5612;51.134;17.058;2023-07-16T06:38:13;3.20;;;2.90;;
2610;SDS011;5612;51.134;17.058;2023-07-16T06:40:45;4.90;;;2.77;;
2610;SDS011;5612;51.134;17.058;2023-07-16T06:43:15;2.80;;;2.60;;
2610;SDS011;5612;51.134;17.058;2023-07-16T06:45:45;2.73;;;2.60;;
2610;SDS011;5612;51.134;17.058;2023-07-16T06:48:15;5.33;;;3.60;;
2610;SDS011;5612;51.134;17.058;2023-07-16T06:50:43;3.60;;;3.30;;
2610;SDS011;5612;51.134;17.058;2023-07-16T06:53:12;3.20;;;2.90;;
2610;SDS011;5612;51.134;17.058;2023-07-16T06:55:41;3.47;;;3.27;;
2610;SDS011;5612;51.134;17.058;2023-07-16T06:58:10;2.70;;;2.60;;
2610;SDS011;5612;51.134;17.058;2023-07-16T07:00:41;4.00;;;2.70;;
2610;SDS011;5612;51.134;17.058;2023-07-16T07:03:10;3.90;;;2.27;;
2610;SDS011;5612;51.134;17.058;2023-07-16T07:05:42;2.17;;;2.07;;
2610;SDS011;5612;51.134;17.058;2023-07-16T07:08:10;2.33;;;2.17;;
2610;SDS011;5612;51.134;17.058;2023-07-16T07:10:40;7.33;;;2.80;;
2610;SDS011;5612;51.134;17.058;2023-07-16T07:13:09;2.40;;;2.20;;
2610;SDS011;5612;51.134;17.058;2023-07-16T07:15:38;2.60;;;2.40;;
2610;SDS011;5612;51.134;17.058;2023-07-16T07:18:07;2.30;;;2.10;;
2610;SDS011;5612;51.134;17.058;2023-07-16T07:20:35;2.23;;;2.13;;
2610;SDS011;5612;51.134;17.058;2023-07-16T07:23:06;2.80;;;2.40;;
2610;SDS011;5612;51.134;17.058;2023-07-16T07:25:35;2.23;;;2.00;;
2610;SDS011;5612;51.134;17.058;2023-07-16T07:28:03;1.63;;;1.63;;
2610;SDS011;5612;51.134;17.058;2023-07-16T07:30:32;2.20;;;2.10;;
2610;SDS011;5612;51.134;17.058;2023-07-16T07:33:01;2.90;;;1.80;;
2610;SDS011;5612;51.134;17.058;2023-07-16T07:35:30;2.30;;;1.83;;
2610;SDS011;5612;51.134;17.058;2023-07-16T07:37:58;2.53;;;2.10;;
2610;SDS011;5612;51.134;17.058;2023-07-16T07:40:29;1.53;;;1.53;;
2610;SDS011;5612;51.134;17.058;2023-07-16T07:42:57;1.70;;;1.60;;
2610;SDS011;5612;51.134;17.058;2023-07-16T07:45:26;2.27;;;2.07;;
2610;SDS011;5612;51.134;17.058;2023-07-16T07:47:55;2.10;;;2.00;;
2610;SDS011;5612;51.134;17.058;2023-07-16T07:50:24;2.63;;;2.07;;
2610;SDS011;5612;51.134;17.058;2023-07-16T07:52:53;1.73;;;1.73;;
2610;SDS011;5612;51.134;17.058;2023-07-16T07:55:21;2.30;;;2.00;;
2610;SDS011;5612;51.134;17.058;2023-07-16T07:57:52;2.33;;;1.87;;
2610;SDS011;5612;51.134;17.058;2023-07-16T08:00:20;1.90;;;1.80;;
2610;SDS011;5612;51.134;17.058;2023-07-16T08:02:50;1.70;;;1.60;;
2610;SDS011;5612;51.134;17.058;2023-07-16T08:05:19;7.70;;;2.07;;
2610;SDS011;5612;51.134;17.058;2023-07-16T08:07:48;2.10;;;1.80;;
2610;SDS011;5612;51.134;17.058;2023-07-16T08:10:18;1.90;;;1.80;;
2610;SDS011;5612;51.134;17.058;2023-07-16T08:12:47;1.97;;;1.67;;
2610;SDS011;5612;51.134;17.058;2023-07-16T08:15:18;2.40;;;1.50;;
2610;SDS011;5612;51.134;17.058;2023-07-16T08:17:47;3.27;;;1.60;;
2610;SDS011;5612;51.134;17.058;2023-07-16T08:20:16;1.27;;;1.27;;
2610;SDS011;5612;51.134;17.058;2023-07-16T08:22:45;1.80;;;1.70;;
2610;SDS011;5612;51.134;17.058;2023-07-16T08:25:13;1.70;;;1.60;;
2610;SDS011;5612;51.134;17.058;2023-07-16T08:27:42;1.43;;;1.40;;
2610;SDS011;5612;51.134;17.058;2023-07-16T08:30:11;1.93;;;1.43;;
2610;SDS011;5612;51.134;17.058;2023-07-16T08:32:43;2.00;;;1.90;;
2610;SDS011;5612;51.134;17.058;2023-07-16T08:35:12;1.23;;;1.20;;
2610;SDS011;5612;51.134;17.058;2023-07-16T08:37:44;1.57;;;1.43;;
2610;SDS011;5612;51.134;17.058;2023-07-16T08:40:13;1.85;;;1.75;;
2610;SDS011;5612;51.134;17.058;2023-07-16T08:42:44;1.90;;;1.80;;
2610;SDS011;5612;51.134;17.058;2023-07-16T08:45:13;1.50;;;1.50;;
2610;SDS011;5612;51.134;17.058;2023-07-16T08:47:47;1.88;;;1.70;;
2610;SDS011;5612;51.134;17.058;2023-07-16T08:50:16;1.53;;;1.53;;
2610;SDS011;5612;51.134;17.058;2023-07-16T08:52:45;1.75;;;1.65;;
2610;SDS011;5612;51.134;17.058;2023-07-16T08:55:15;1.50;;;1.50;;
2610;SDS011;5612;51.134;17.058;2023-07-16T08:57:45;7.27;;;2.00;;
2610;SDS011;5612;51.134;17.058;2023-07-16T09:00:15;3.23;;;1.90;;
2610;SDS011;5612;51.134;17.058;2023-07-16T09:02:44;2.50;;;1.87;;
2610;SDS011;5612;51.134;17.058;2023-07-16T09:05:15;1.70;;;1.60;;
2610;SDS011;5612;51.134;17.058;2023-07-16T09:08:05;1.70;;;1.60;;
2610;SDS011;5612;51.134;17.058;2023-07-16T09:10:34;2.33;;;1.63;;
2610;SDS011;5612;51.134;17.058;2023-07-16T09:13:03;1.70;;;1.60;;
2610;SDS011;5612;51.134;17.058;2023-07-16T09:15:32;1.83;;;1.73;;
2610;SDS011;5612;51.134;17.058;2023-07-16T09:18:03;2.20;;;2.10;;
2610;SDS011;5612;51.134;17.058;2023-07-16T09:20:32;2.40;;;2.20;;
2610;SDS011;5612;51.134;17.058;2023-07-16T09:23:01;1.83;;;1.73;;
2610;SDS011;5612;51.134;17.058;2023-07-16T09:25:30;2.10;;;2.00;;
2610;SDS011;5612;51.134;17.058;2023-07-16T09:28:02;2.33;;;2.23;;
2610;SDS011;5612;51.134;17.058;2023-07-16T09:30:32;2.60;;;2.10;;
2610;SDS011;5612;51.134;17.058;2023-07-16T09:33:10;2.40;;;2.20;;
2610;SDS011;5612;51.134;17.058;2023-07-16T09:35:41;3.70;;;1.97;;
2610;SDS011;5612;51.134;17.058;2023-07-16T09:38:10;2.13;;;2.03;;
2610;SDS011;5612;51.134;17.058;2023-07-16T09:40:39;2.10;;;2.00;;
2610;SDS011;5612;51.134;17.058;2023-07-16T09:43:09;2.30;;;1.80;;
2610;SDS011;5612;51.134;17.058;2023-07-16T09:45:39;2.50;;;2.30;;
2610;SDS011;5612;51.134;17.058;2023-07-16T09:48:12;4.50;;;2.13;;
2610;SDS011;5612;51.134;17.058;2023-07-16T09:50:51;2.30;;;2.17;;
2610;SDS011;5612;51.134;17.058;2023-07-16T09:53:21;2.03;;;1.93;;
2610;SDS011;5612;51.134;17.058;2023-07-16T09:55:54;2.00;;;1.90;;
2610;SDS011;5612;51.134;17.058;2023-07-16T09:58:24;1.58;;;1.58;;
2610;SDS011;5612;51.134;17.058;2023-07-16T10:00:54;1.70;;;1.67;;
2610;SDS011;5612;51.134;17.058;2023-07-16T10:03:26;2.97;;;2.60;;
2610;SDS011;5612;51.134;17.058;2023-07-16T10:06:05;2.10;;;2.00;;
2610;SDS011;5612;51.134;17.058;2023-07-16T10:08:35;1.77;;;1.70;;
2610;SDS011;5612;51.134;17.058;2023-07-16T10:11:14;1.63;;;1.60;;
2610;SDS011;5612;51.134;17.058;2023-07-16T10:13:48;2.67;;;2.53;;
2610;SDS011;5612;51.134;17.058;2023-07-16T10:16:21;2.20;;;2.10;;
2610;SDS011;5612;51.134;17.058;2023-07-16T10:18:57;2.42;;;2.22;;
2610;SDS011;5612;51.134;17.058;2023-07-16T10:21:27;2.45;;;2.25;;
2610;SDS011;5612;51.134;17.058;2023-07-16T10:24:04;2.35;;;2.25;;
2610;SDS011;5612;51.134;17.058;2023-07-16T10:26:44;2.05;;;1.90;;
2610;SDS011;5612;51.134;17.058;2023-07-16T10:29:13;2.67;;;2.58;;
2610;SDS011;5612;51.134;17.058;2023-07-16T10:31:42;2.90;;;2.70;;
2610;SDS011;5612;51.134;17.058;2023-07-16T10:34:13;2.63;;;2.43;;
2610;SDS011;5612;51.134;17.058;2023-07-16T10:36:41;2.60;;;2.50;;
2610;SDS011;5612;51.134;17.058;2023-07-16T10:39:10;3.03;;;2.83;;
2610;SDS011;5612;51.134;17.058;2023-07-16T10:41:39;2.17;;;2.07;;
2610;SDS011;5612;51.134;17.058;2023-07-16T10:44:08;2.40;;;2.30;;
2610;SDS011;5612;51.134;17.058;2023-07-16T10:46:41;2.60;;;2.17;;
2610;SDS011;5612;51.134;17.058;2023-07-16T10:49:10;3.83;;;2.20;;
2610;SDS011;5612;51.134;17.058;2023-07-16T10:51:40;2.80;;;2.67;;
2610;SDS011;5612;51.134;17.058;2023-07-16T10:54:09;2.50;;;2.40;;
2610;SDS011;5612;51.134;17.058;2023-07-16T10:56:38;2.50;;;2.00;;
2610;SDS011;5612;51.134;17.058;2023-07-16T10:59:09;2.23;;;2.07;;
2610;SDS011;5612;51.134;17.058;2023-07-16T11:01:39;2.33;;;2.23;;
2610;SDS011;5612;51.134;17.058;2023-07-16T11:04:09;2.33;;;2.10;;
2610;SDS011;5612;51.134;17.058;2023-07-16T11:06:38;2.67;;;2.07;;
2610;SDS011;5612;51.134;17.058;2023-07-16T11:09:09;2.13;;;2.03;;
2610;SDS011;5612;51.134;17.058;2023-07-16T11:11:38;3.03;;;2.50;;
2610;SDS011;5612;51.134;17.058;2023-07-16T11:14:07;2.60;;;2.40;;
2610;SDS011;5612;51.134;17.058;2023-07-16T11:16:36;2.43;;;2.33;;
2610;SDS011;5612;51.134;17.058;2023-07-16T11:19:06;3.23;;;2.40;;
2610;SDS011;5612;51.134;17.058;2023-07-16T11:21:36;2.40;;;2.20;;
2610;SDS011;5612;51.134;17.058;2023-07-16T11:24:09;5.23;;;2.50;;
2610;SDS011;5612;51.134;17.058;2023-07-16T11:26:49;2.73;;;2.53;;
2610;SDS011;5612;51.134;17.058;2023-07-16T11:29:19;2.60;;;2.00;;
2610;SDS011;5612;51.134;17.058;2023-07-16T11:31:48;2.77;;;2.57;;
2610;SDS011;5612;51.134;17.058;2023-07-16T11:34:19;2.07;;;1.97;;
2610;SDS011;5612;51.134;17.058;2023-07-16T11:36:49;2.30;;;2.10;;
2610;SDS011;5612;51.134;17.058;2023-07-16T11:39:20;1.80;;;1.70;;
2610;SDS011;5612;51.134;17.058;2023-07-16T11:41:55;2.13;;;2.03;;
2610;SDS011;5612;51.134;17.058;2023-07-16T11:44:25;1.67;;;1.57;;
2610;SDS011;5612;51.134;17.058;2023-07-16T11:46:59;2.07;;;1.97;;
2610;SDS011;5612;51.134;17.058;2023-07-16T11:49:31;2.10;;;2.00;;
2610;SDS011;5612;51.134;17.058;2023-07-16T11:52:00;4.60;;;1.40;;
2610;SDS011;5612;51.134;17.058;2023-07-16T11:54:31;1.80;;;1.70;;
2610;SDS011;5612;51.134;17.058;2023-07-16T11:57:00;1.70;;;1.60;;
2610;SDS011;5612;51.134;17.058;2023-07-16T11:59:29;1.73;;;1.63;;
2610;SDS011;5612;51.134;17.058;2023-07-16T12:01:58;1.87;;;1.77;;
2610;SDS011;5612;51.134;17.058;2023-07-16T12:04:27;5.10;;;1.93;;
2610;SDS011;5612;51.134;17.058;2023-07-16T12:06:56;1.07;;;1.07;;
2610;SDS011;5612;51.134;17.058;2023-07-16T12:09:25;1.83;;;1.73;;
2610;SDS011;5612;51.134;17.058;2023-07-16T12:11:55;1.90;;;1.80;;
2610;SDS011;5612;51.134;17.058;2023-07-16T12:14:24;1.80;;;1.70;;
2610;SDS011;5612;51.134;17.058;2023-07-16T12:16:53;2.40;;;1.83;;
2610;SDS011;5612;51.134;17.058;2023-07-16T12:19:23;2.30;;;1.60;;
2610;SDS011;5612;51.134;17.058;2023-07-16T12:21:53;1.57;;;1.47;;
2610;SDS011;5612;51.134;17.058;2023-07-16T12:24:23;1.50;;;1.40;;
2610;SDS011;5612;51.134;17.058;2023-07-16T12:26:51;1.63;;;1.63;;
2610;SDS011;5612;51.134;17.058;2023-07-16T12:29:22;2.20;;;2.00;;
2610;SDS011;5612;51.134;17.058;2023-07-16T12:31:54;2.07;;;1.97;;
2610;SDS011;5612;51.134;17.058;2023-07-16T12:34:23;1.57;;;1.47;;
2610;SDS011;5612;51.134;17.058;2023-07-16T12:36:52;2.90;;;1.83;;
2610;SDS011;5612;51.134;17.058;2023-07-16T12:39:22;2.00;;;1.90;;
2610;SDS011;5612;51.134;17.058;2023-07-16T12:41:51;1.73;;;1.60;;
2610;SDS011;5612;51.134;17.058;2023-07-16T12:44:21;1.90;;;1.80;;
2610;SDS011;5612;51.134;17.058;2023-07-16T12:46:50;2.00;;;1.90;;
2610;SDS011;5612;51.134;17.058;2023-07-16T12:49:19;1.80;;;1.70;;
2610;SDS011;5612;51.134;17.058;2023-07-16T12:51:48;1.73;;;1.63;;
2610;SDS011;5612;51.134;17.058;2023-07-16T12:54:17;4.37;;;1.90;;
2610;SDS011;5612;51.134;17.058;2023-07-16T12:56:46;2.13;;;2.03;;
2610;SDS011;5612;51.134;17.058;2023-07-16T12:59:15;1.83;;;1.73;;
2610;SDS011;5612;51.134;17.058;2023-07-16T13:01:45;2.93;;;1.53;;
2610;SDS011;5612;51.134;17.058;2023-07-16T13:04:14;2.33;;;1.80;;
2610;SDS011;5612;51.134;17.058;2023-07-16T13:06:43;2.30;;;2.20;;
2610;SDS011;5612;51.134;17.058;2023-07-16T13:09:14;1.70;;;1.60;;
2610;SDS011;5612;51.134;17.058;2023-07-16T13:11:43;2.27;;;2.17;;
2610;SDS011;5612;51.134;17.058;2023-07-16T13:14:13;2.30;;;2.20;;
2610;SDS011;5612;51.134;17.058;2023-07-16T13:16:43;2.30;;;2.20;;
2610;SDS011;5612;51.134;17.058;2023-07-16T13:19:13;1.83;;;1.73;;
2610;SDS011;5612;51.134;17.058;2023-07-16T13:21:44;2.37;;;2.20;;
2610;SDS011;5612;51.134;17.058;2023-07-16T13:24:13;1.90;;;1.67;;
2610;SDS011;5612;51.134;17.058;2023-07-16T13:26:43;1.67;;;1.57;;
2610;SDS011;5612;51.134;17.058;2023-07-16T13:29:14;10.87;;;9.83;;
2610;SDS011;5612;51.134;17.058;2023-07-16T13:31:45;4.40;;;4.10;;
2610;SDS011;5612;51.134;17.058;2023-07-16T13:34:16;2.80;;;2.60;;
2610;SDS011;5612;51.134;17.058;2023-07-16T13:36:45;3.73;;;3.53;;
2610;SDS011;5612;51.134;17.058;2023-07-16T13:39:15;2.70;;;2.60;;
2610;SDS011;5612;51.134;17.058;2023-07-16T13:41:46;2.13;;;2.03;;
2610;SDS011;5612;51.134;17.058;2023-07-16T13:44:15;2.50;;;2.30;;
2610;SDS011;5612;51.134;17.058;2023-07-16T13:46:46;1.87;;;1.77;;
2610;SDS011;5612;51.134;17.058;2023-07-16T13:49:16;2.50;;;2.00;;
2610;SDS011;5612;51.134;17.058;2023-07-16T13:51:46;1.80;;;1.70;;
2610;SDS011;5612;51.134;17.058;2023-07-16T13:54:16;2.97;;;2.10;;
2610;SDS011;5612;51.134;17.058;2023-07-16T13:56:46;2.03;;;1.93;;
2610;SDS011;5612;51.134;17.058;2023-07-16T13:59:16;3.17;;;2.10;;
2610;SDS011;5612;51.134;17.058;2023-07-16T14:01:58;2.90;;;1.93;;
2610;SDS011;5612;51.134;17.058;2023-07-16T14:04:29;2.10;;;2.00;;
2610;SDS011;5612;51.134;17.058;2023-07-16T14:06:59;1.80;;;1.73;;
2610;SDS011;5612;51.134;17.058;2023-07-16T14:09:29;2.10;;;2.00;;
2610;SDS011;5612;51.134;17.058;2023-07-16T14:11:59;2.50;;;2.30;;
2610;SDS011;5612;51.134;17.058;2023-07-16T14:14:28;2.20;;;2.07;;
2610;SDS011;5612;51.134;17.058;2023-07-16T14:17:00;3.10;;;2.07;;
2610;SDS011;5612;51.134;17.058;2023-07-16T14:19:30;2.37;;;2.17;;
2610;SDS011;5612;51.134;17.058;2023-07-16T14:22:01;2.30;;;2.20;;
2610;SDS011;5612;51.134;17.058;2023-07-16T14:24:31;2.20;;;2.10;;
2610;SDS011;5612;51.134;17.058;2023-07-16T14:27:00;2.53;;;2.33;;
2610;SDS011;5612;51.134;17.058;2023-07-16T14:29:29;2.83;;;2.63;;
2610;SDS011;5612;51.134;17.058;2023-07-16T14:32:01;2.50;;;2.30;;
2610;SDS011;5612;51.134;17.058;2023-07-16T14:34:33;1.83;;;1.73;;
2610;SDS011;5612;51.134;17.058;2023-07-16T14:37:03;2.47;;;2.37;;
2610;SDS011;5612;51.134;17.058;2023-07-16T14:39:33;2.47;;;2.33;;
2610;SDS011;5612;51.134;17.058;2023-07-16T14:42:03;2.40;;;2.20;;
2610;SDS011;5612;51.134;17.058;2023-07-16T14:44:33;2.80;;;2.60;;
2610;SDS011;5612;51.134;17.058;2023-07-16T14:47:08;7.00;;;2.60;;
2610;SDS011;5612;51.134;17.058;2023-07-16T14:49:38;2.47;;;2.27;;
2610;SDS011;5612;51.134;17.058;2023-07-16T14:52:07;2.80;;;2.43;;
2610;SDS011;5612;51.134;17.058;2023-07-16T14:54:37;2.77;;;2.57;;
2610;SDS011;5612;51.134;17.058;2023-07-16T14:57:07;2.47;;;2.20;;
2610;SDS011;5612;51.134;17.058;2023-07-16T14:59:38;2.37;;;2.27;;
2610;SDS011;5612;51.134;17.058;2023-07-16T15:02:10;2.40;;;2.30;;
2610;SDS011;5612;51.134;17.058;2023-07-16T15:04:40;2.60;;;2.40;;
2610;SDS011;5612;51.134;17.058;2023-07-16T15:07:10;2.57;;;2.47;;
2610;SDS011;5612;51.134;17.058;2023-07-16T15:09:40;2.60;;;2.50;;
2610;SDS011;5612;51.134;17.058;2023-07-16T15:12:10;2.37;;;2.27;;
2610;SDS011;5612;51.134;17.058;2023-07-16T15:14:39;2.50;;;2.40;;
2610;SDS011;5612;51.134;17.058;2023-07-16T15:17:11;2.60;;;2.40;;
2610;SDS011;5612;51.134;17.058;2023-07-16T15:19:40;3.33;;;2.53;;